Columbia — WDD6400 — position and weather

sailwx.info

Track history (hours):
 
Tides and Currents Weather Stations Pressure Air Temp Water Temp Dewpoint Dewpoint Depression Visibility Wind Speed Wind Dir Waves Ship Positions

Columbia

Owner: OSG Ship Management Inc., Tampa, FL. More information available from US FCC via Universal Licensing System and Coast Guard Vessel Documentation Center.

Last reported at 2017-Feb-06 11:14 UTC. Time now 2017-Feb-20 22:22 UTC.
Position N 27°36' W 082°45'.
Warning: this ship's position is 14 days out of date.

Length 194 m; draft 5.9 m.

Type: Towing. MMSI: 367172440.

Date/timePositionNaut miles runAvg speedWind from/ knotsBaromVisibWave heightAir tempDewpointWater temp
2017-Feb-06 11:14N 27°36' W 082°45'0 0.1
2017-Feb-06 10:32N 27°36' W 082°45'0 0.1
2017-Feb-06 09:32N 27°36' W 082°45'0 0.0
2017-Feb-06 08:23N 27°36' W 082°45'0 0.0
2017-Feb-04 06:28N 27°36' W 082°45'0 0.0
2017-Feb-04 05:22N 27°36' W 082°45'0 0.0
2017-Feb-03 05:21N 27°36' W 082°45'0 0.0
2017-Feb-03 04:33N 27°36' W 082°45'0 0.0
2017-Feb-03 03:30N 27°36' W 082°45'0 0.0
2017-Feb-03 02:34N 27°36' W 082°45'6 5.5
2017-Feb-03 01:32N 27°37' W 082°39'5 0.1
2017-Feb-01 15:18N 27°38' W 082°34'0 0.0
2017-Feb-01 14:15N 27°38' W 082°34'0 0.0
2017-Feb-01 04:23N 27°38' W 082°34'3 3.6
2017-Feb-01 03:32N 27°41' W 082°34'9 9.1
2017-Feb-01 02:33N 27°48' W 082°28'7 7.0
2017-Feb-01 01:32N 27°55' W 082°27'0 0.1
2017-Feb-01 00:31N 27°55' W 082°27'0 0.3
2017-Jan-31 23:34N 27°55' W 082°27'1 0.8
2017-Jan-31 22:31N 27°55' W 082°26'0 0.0
2017-Jan-31 21:31N 27°55' W 082°26'0 0.0
2017-Jan-31 20:31N 27°55' W 082°26'0 0.0
2017-Jan-31 19:31N 27°55' W 082°26'0 0.0
2017-Jan-31 18:31N 27°55' W 082°26'0 0.0
2017-Jan-31 17:31N 27°55' W 082°26'0 0.0
2017-Jan-31 16:31N 27°55' W 082°26'0 0.0
2017-Jan-31 15:31N 27°55' W 082°26'0 0.0
2017-Jan-31 14:31N 27°55' W 082°26'0 0.0
2017-Jan-31 13:31N 27°55' W 082°26'0 0.0
2017-Jan-31 12:31N 27°55' W 082°26'0 0.0
2017-Jan-31 11:31N 27°55' W 082°26'1 0.8
2017-Jan-31 10:30N 27°55' W 082°27'0 0.0
2017-Jan-31 09:33N 27°55' W 082°27'0 0.0
2017-Jan-31 08:33N 27°55' W 082°27'0 0.0
2017-Jan-31 07:33N 27°55' W 082°27'0 0.0
2017-Jan-31 06:34N 27°55' W 082°27'5 5.3
2017-Jan-31 05:34N 27°50' W 082°27'9 8.8
2017-Jan-31 04:33N 27°43' W 082°33'  
Track history (hours):
 
Tides and Currents Weather Stations Pressure Air Temp Water Temp Dewpoint Dewpoint Depression Visibility Wind Speed Wind Dir Waves Ship Positions

Columbia

Owner: OSG Ship Management Inc., Tampa, FL. More information available from US FCC via Universal Licensing System and Coast Guard Vessel Documentation Center.

Last reported at 2017-Feb-06 11:14 UTC. Time now 2017-Feb-20 22:22 UTC.
Position N 27°36' W 082°45'.
Warning: this ship's position is 14 days out of date.

Length 194 m; draft 5.9 m.

Type: Towing. MMSI: 367172440.

Date/timePositionNaut miles runAvg speedWind from/ knotsBaromVisibWave heightAir tempDewpointWater temp
2017-Feb-06 11:14N 27°36' W 082°45'0 0.1
2017-Feb-06 10:32N 27°36' W 082°45'0 0.1
2017-Feb-06 09:32N 27°36' W 082°45'0 0.0
2017-Feb-06 08:23N 27°36' W 082°45'0 0.0
2017-Feb-04 06:28N 27°36' W 082°45'0 0.0
2017-Feb-04 05:22N 27°36' W 082°45'0 0.0
2017-Feb-03 05:21N 27°36' W 082°45'0 0.0
2017-Feb-03 04:33N 27°36' W 082°45'0 0.0
2017-Feb-03 03:30N 27°36' W 082°45'0 0.0
2017-Feb-03 02:34N 27°36' W 082°45'6 5.5
2017-Feb-03 01:32N 27°37' W 082°39'5 0.1
2017-Feb-01 15:18N 27°38' W 082°34'0 0.0
2017-Feb-01 14:15N 27°38' W 082°34'0 0.0
2017-Feb-01 04:23N 27°38' W 082°34'3 3.6
2017-Feb-01 03:32N 27°41' W 082°34'9 9.1
2017-Feb-01 02:33N 27°48' W 082°28'7 7.0
2017-Feb-01 01:32N 27°55' W 082°27'0 0.1
2017-Feb-01 00:31N 27°55' W 082°27'0 0.3
2017-Jan-31 23:34N 27°55' W 082°27'1 0.8
2017-Jan-31 22:31N 27°55' W 082°26'0 0.0
2017-Jan-31 21:31N 27°55' W 082°26'0 0.0
2017-Jan-31 20:31N 27°55' W 082°26'0 0.0
2017-Jan-31 19:31N 27°55' W 082°26'0 0.0
2017-Jan-31 18:31N 27°55' W 082°26'0 0.0
2017-Jan-31 17:31N 27°55' W 082°26'0 0.0
2017-Jan-31 16:31N 27°55' W 082°26'0 0.0
2017-Jan-31 15:31N 27°55' W 082°26'0 0.0
2017-Jan-31 14:31N 27°55' W 082°26'0 0.0
2017-Jan-31 13:31N 27°55' W 082°26'0 0.0
2017-Jan-31 12:31N 27°55' W 082°26'0 0.0
2017-Jan-31 11:31N 27°55' W 082°26'1 0.8
2017-Jan-31 10:30N 27°55' W 082°27'0 0.0
2017-Jan-31 09:33N 27°55' W 082°27'0 0.0
2017-Jan-31 08:33N 27°55' W 082°27'0 0.0
2017-Jan-31 07:33N 27°55' W 082°27'0 0.0
2017-Jan-31 06:34N 27°55' W 082°27'5 5.3
2017-Jan-31 05:34N 27°50' W 082°27'9 8.8
2017-Jan-31 04:33N 27°43' W 082°33'  

Dump ship's entire track history